Time;durP1;ratioP1;P1;durP2;ratioP2;P2;SDS_P1;SDS_P2;PMS_P1;PMS_P2;Temp;Humidity;BMP_temperature;BMP_pressure;BME280_temperature;BME280_humidity;BME280_pressure;Samples;Min_cycle;Max_cycle;Signal;HPM_P1;HPM_P2
2022/02/09 00:05:20;;;;;;;5.28;4.60;;;22.20;37.20;;;;;;5042780;28;20025;-56
2022/02/09 00:07:44;;;;;;;5.45;4.75;;;22.20;37.20;;;;;;5037672;28;20041;-52
2022/02/09 00:10:10;;;;;;;5.95;4.35;;;22.10;37.20;;;;;;5048257;28;20060;-54
2022/02/09 00:12:43;;;;;;;5.88;4.38;;;22.10;37.20;;;;;;5038361;28;20124;-57
2022/02/09 00:15:22;;;;;;;6.20;3.97;;;22.10;37.20;;;;;;5039171;28;20022;-55
2022/02/09 00:18:04;;;;;;;5.10;4.30;;;22.10;37.20;;;;;;5037687;28;20021;-48
2022/02/09 00:31:08;;;;;;;4.47;3.72;;;22.10;37.20;;;;;;5043810;28;20359;-54
2022/02/09 00:36:29;;;;;;;4.22;3.22;;;22.10;37.20;;;;;;5044397;28;20037;-52
2022/02/09 01:56:53;;;;;;;2.50;1.85;;;21.90;37.20;;;;;;5049432;28;20100;-56
2022/02/09 01:59:19;;;;;;;3.45;2.63;;;21.90;37.30;;;;;;5026256;28;20132;-53
2022/02/09 02:01:44;;;;;;;2.80;2.05;;;21.90;37.30;;;;;;5052802;28;20025;-53
2022/02/09 02:04:10;;;;;;;2.75;2.17;;;21.90;37.30;;;;;;5044788;28;20037;-54
2022/02/09 02:06:44;;;;;;;2.33;1.90;;;21.80;37.20;;;;;;5046887;28;20439;-54
2022/02/09 02:09:11;;;;;;;3.75;2.30;;;21.80;37.30;;;;;;5043458;28;20037;-57
2022/02/09 02:11:47;;;;;;;2.78;2.03;;;21.80;37.30;;;;;;5046067;28;20021;-53
2022/02/09 02:14:22;;;;;;;3.33;1.83;;;21.90;37.30;;;;;;5051951;28;20075;-49
2022/02/09 02:24:59;;;;;;;2.85;2.08;;;21.80;37.40;;;;;;5048262;28;20037;-49
2022/02/09 02:36:28;;;;;;;2.10;1.80;;;21.80;37.40;;;;;;5050053;28;20035;-55
2022/02/09 02:59:45;;;;;;;1.83;1.30;;;21.70;37.50;;;;;;5049181;28;20040;-58
2022/02/09 03:13:13;;;;;;;2.03;1.60;;;21.70;37.70;;;;;;5038919;28;20072;-51
2022/02/09 03:15:53;;;;;;;2.00;1.50;;;21.70;37.70;;;;;;5034235;28;20029;-52
2022/02/09 03:24:19;;;;;;;1.73;1.30;;;21.70;37.70;;;;;;4969693;28;20035;-57
2022/02/09 03:27:05;;;;;;;1.75;1.30;;;21.80;37.80;;;;;;4963949;28;20374;-54
2022/02/09 03:58:38;;;;;;;1.45;1.20;;;21.70;37.90;;;;;;5049620;28;20376;-55
2022/02/09 04:01:05;;;;;;;1.90;1.33;;;21.70;37.90;;;;;;5040828;28;20115;-52
2022/02/09 04:03:30;;;;;;;1.50;1.27;;;21.70;37.90;;;;;;5032831;28;20372;-56
2022/02/09 04:05:56;;;;;;;1.90;1.08;;;21.70;37.90;;;;;;5035994;28;20057;-56
2022/02/09 04:08:28;;;;;;;1.58;1.17;;;21.70;38.00;;;;;;5038208;28;20117;-56
2022/02/09 04:11:12;;;;;;;1.20;1.08;;;21.70;37.90;;;;;;5037551;28;20034;-54
2022/02/09 04:13:58;;;;;;;2.70;1.20;;;21.70;38.00;;;;;;5040961;28;20034;-56
2022/02/09 04:19:26;;;;;;;1.92;1.35;;;21.70;38.00;;;;;;5047343;28;20060;-55
2022/02/09 04:38:34;;;;;;;0.85;0.85;;;21.60;38.10;;;;;;5049507;28;20095;-55
2022/02/09 04:46:58;;;;;;;1.45;1.10;;;21.60;38.80;;;;;;5050699;28;20410;-52
2022/02/09 04:56:49;;;;;;;1.15;0.85;;;21.70;38.30;;;;;;5055829;28;20097;-52
2022/02/09 04:59:26;;;;;;;1.02;0.90;;;21.60;38.30;;;;;;5051566;28;20052;-56
2022/02/09 05:30:15;;;;;;;1.00;0.82;;;21.60;38.60;;;;;;5050120;28;20348;-51
2022/02/09 05:32:41;;;;;;;0.70;0.70;;;21.50;38.50;;;;;;5055943;28;20501;-53
2022/02/09 05:35:07;;;;;;;0.80;0.80;;;21.60;38.60;;;;;;5037730;28;20112;-51
2022/02/09 05:37:33;;;;;;;0.80;0.75;;;21.60;38.60;;;;;;5036281;28;20017;-50
2022/02/09 05:39:59;;;;;;;0.60;0.50;;;21.50;38.60;;;;;;5040634;28;20486;-56
2022/02/09 05:42:25;;;;;;;1.02;0.80;;;21.60;38.60;;;;;;5056317;28;20450;-51
2022/02/09 05:44:51;;;;;;;0.85;0.60;;;21.60;38.60;;;;;;5042664;28;20025;-59
2022/02/09 05:50:12;;;;;;;0.90;0.70;;;21.60;38.60;;;;;;5045648;28;20087;-49
2022/02/09 05:57:51;;;;;;;0.73;0.68;;;21.50;38.60;;;;;;5055572;28;20438;-54
2022/02/09 06:00:17;;;;;;;0.80;0.70;;;21.50;38.60;;;;;;5045002;28;20065;-52
2022/02/09 06:02:46;;;;;;;0.50;0.50;;;21.50;38.70;;;;;;5018581;28;20044;-55
2022/02/09 06:05:14;;;;;;;0.70;0.60;;;21.50;38.60;;;;;;5036240;28;20029;-57
2022/02/09 06:07:41;;;;;;;0.75;0.65;;;21.50;38.70;;;;;;5047768;28;20108;-51
2022/02/09 06:10:14;;;;;;;0.70;0.70;;;21.50;38.70;;;;;;5038343;28;20044;-54
2022/02/09 06:12:50;;;;;;;1.75;0.88;;;21.50;38.70;;;;;;5036050;28;20387;-53
2022/02/09 06:15:45;;;;;;;0.50;0.50;;;21.50;38.80;;;;;;5048997;28;20033;-58
2022/02/09 06:20:50;;;;;;;;;;;21.50;38.80;;;;;;5050632;28;20091;-57
2022/02/09 06:23:16;;;;;;;0.73;0.60;;;21.40;38.80;;;;;;5052788;28;19992;-56
2022/02/09 06:25:42;;;;;;;3.22;0.60;;;21.40;38.80;;;;;;5038356;28;20037;-53
2022/02/09 06:28:07;;;;;;;0.70;0.70;;;21.40;38.80;;;;;;5053130;28;20112;-52
2022/02/09 06:30:33;;;;;;;0.95;0.75;;;21.40;38.80;;;;;;5034854;28;20028;-55
2022/02/09 06:32:59;;;;;;;0.93;0.70;;;21.40;38.80;;;;;;5053986;28;20036;-55
2022/02/09 06:35:25;;;;;;;0.60;0.60;;;21.40;38.80;;;;;;5040202;28;20028;-55
2022/02/09 06:37:51;;;;;;;0.70;0.60;;;21.40;38.80;;;;;;5039873;28;20034;-54
2022/02/09 06:40:18;;;;;;;0.70;0.60;;;21.40;38.90;;;;;;5032423;28;20452;-55
2022/02/09 06:42:44;;;;;;;0.93;0.52;;;21.40;38.90;;;;;;5037767;28;20112;-52
2022/02/09 06:45:20;;;;;;;0.60;0.57;;;21.40;38.90;;;;;;5035655;28;20112;-56
2022/02/09 06:47:46;;;;;;;0.60;0.47;;;21.40;38.90;;;;;;5047462;28;20108;-55
2022/02/09 06:50:21;;;;;;;0.90;0.70;;;21.40;38.90;;;;;;5031111;28;20108;-52
2022/02/09 06:52:57;;;;;;;0.88;0.60;;;21.40;38.90;;;;;;5047033;28;20399;-53
2022/02/09 06:55:23;;;;;;;0.70;0.55;;;21.40;38.90;;;;;;5036796;28;20048;-55
2022/02/09 07:00:17;;;;;;;0.70;0.57;;;21.40;39.50;;;;;;5035281;28;20064;-51
2022/02/09 07:02:44;;;;;;;0.60;0.50;;;21.40;38.90;;;;;;5053081;28;20044;-54
2022/02/09 07:05:10;;;;;;;0.88;0.57;;;21.40;38.90;;;;;;5035107;28;20032;-54
2022/02/09 07:07:37;;;;;;;0.60;0.50;;;21.40;38.90;;;;;;5053356;28;20349;-52
2022/02/09 07:10:04;;;;;;;0.75;0.55;;;21.40;39.00;;;;;;5035273;28;20417;-55
2022/02/09 07:12:30;;;;;;;0.82;0.60;;;21.40;39.00;;;;;;5053895;28;20021;-58
2022/02/09 07:14:56;;;;;;;0.63;0.50;;;21.40;39.00;;;;;;5033179;28;20038;-56
2022/02/09 07:17:23;;;;;;;0.90;0.60;;;21.40;39.00;;;;;;5035508;28;20057;-51
2022/02/09 07:19:55;;;;;;;0.38;0.30;;;21.40;39.00;;;;;;5048439;28;20039;-53
2022/02/09 07:22:25;;;;;;;0.60;0.60;;;21.30;39.00;;;;;;5033911;28;20318;-57
2022/02/09 07:25:02;;;;;;;0.38;0.38;;;21.40;39.00;;;;;;5034512;28;20421;-54
2022/02/09 07:27:40;;;;;;;0.57;0.50;;;21.40;39.00;;;;;;5035476;28;20049;-51
2022/02/09 07:30:07;;;;;;;0.30;0.30;;;21.40;39.00;;;;;;5035575;28;20387;-53
2022/02/09 07:32:33;;;;;;;0.57;0.50;;;21.40;39.00;;;;;;5048312;28;20077;-49
2022/02/09 07:34:59;;;;;;;0.50;0.50;;;21.40;39.00;;;;;;5045423;28;20026;-53
2022/02/09 07:37:25;;;;;;;1.63;0.80;;;21.30;39.00;;;;;;5034764;28;20444;-56
2022/02/09 07:39:51;;;;;;;0.57;0.45;;;21.40;39.00;;;;;;5037807;28;20053;-54
2022/02/09 07:42:24;;;;;;;0.52;0.40;;;21.40;39.10;;;;;;5038347;28;20424;-52
2022/02/09 07:53:07;;;;;;;0.40;0.40;;;21.30;39.00;;;;;;5045381;28;20158;-57
2022/02/09 07:55:34;;;;;;;0.60;0.40;;;21.30;39.00;;;;;;5048014;28;20036;-49
2022/02/09 07:58:00;;;;;;;0.35;0.35;;;21.30;39.00;;;;;;5052783;28;20033;-55
2022/02/09 08:00:26;;;;;;;0.80;0.40;;;21.30;39.00;;;;;;5049429;28;20068;-54
2022/02/09 08:02:52;;;;;;;1.08;0.57;;;21.30;39.10;;;;;;5054191;28;20040;-52
2022/02/09 08:05:20;;;;;;;0.57;0.50;;;21.30;39.20;;;;;;5039015;28;20528;-55
2022/02/09 08:07:46;;;;;;;0.50;0.43;;;21.20;39.30;;;;;;5043232;28;20060;-53
2022/02/09 08:10:38;;;;;;;0.70;0.50;;;21.20;39.40;;;;;;5037740;28;20037;-58
2022/02/09 08:26:44;;;;;;;0.47;0.47;;;21.70;39.20;;;;;;5037417;28;20049;-56
2022/02/09 08:29:20;;;;;;;0.95;0.57;;;21.80;39.10;;;;;;5054251;28;20064;-56
2022/02/09 08:34:14;;;;;;;1.00;0.60;;;22.00;38.90;;;;;;5034412;28;20048;-53
2022/02/09 08:36:41;;;;;;;0.40;0.40;;;22.10;38.80;;;;;;5037946;28;20107;-54
2022/02/09 08:39:07;;;;;;;0.82;0.30;;;22.20;38.70;;;;;;5037684;28;20056;-57
2022/02/09 08:41:34;;;;;;;0.30;0.30;;;22.30;38.60;;;;;;5036568;28;20033;-58
2022/02/09 08:44:01;;;;;;;0.63;0.47;;;22.40;38.50;;;;;;5055591;28;20424;-53
2022/02/09 08:46:27;;;;;;;0.82;0.50;;;22.50;38.50;;;;;;5044482;28;20423;-55
2022/02/09 08:48:52;;;;;;;0.40;0.40;;;22.50;38.40;;;;;;5053685;28;20029;-57
2022/02/09 08:51:22;;;;;;;0.95;0.30;;;22.60;38.40;;;;;;5047999;28;20055;-55
2022/02/09 08:53:48;;;;;;;0.63;0.45;;;22.70;38.40;;;;;;5053548;28;20020;-56
2022/02/09 08:56:14;;;;;;;0.38;0.38;;;22.70;38.30;;;;;;5054238;28;20025;-54
2022/02/09 08:58:44;;;;;;;0.52;0.45;;;22.70;38.20;;;;;;5052899;28;20025;-54
2022/02/09 09:01:24;;;;;;;0.40;0.40;;;22.80;38.10;;;;;;5043466;28;20055;-52
2022/02/09 09:03:53;;;;;;;0.30;0.30;;;22.90;38.10;;;;;;5049419;28;20017;-57
2022/02/09 09:06:25;;;;;;;1.00;0.50;;;23.00;38.00;;;;;;5042646;28;20056;-53
2022/02/09 09:17:25;;;;;;;0.55;0.52;;;23.20;37.80;;;;;;5042501;28;20087;-55
2022/02/09 09:58:10;;;;;;;0.95;0.40;;;24.00;37.10;;;;;;5047783;28;20029;-55
2022/02/09 10:34:17;;;;;;;0.30;0.30;;;23.70;37.60;;;;;;5046358;28;20021;-51
2022/02/09 10:36:52;;;;;;;1.05;0.40;;;23.70;37.70;;;;;;5053473;28;20037;-52
2022/02/09 10:39:45;;;;;;;1.25;0.43;;;23.60;37.80;;;;;;5035560;28;20037;-51
2022/02/09 10:42:19;;;;;;;0.47;0.40;;;23.60;37.80;;;;;;5036953;28;20044;-56
2022/02/09 10:44:55;;;;;;;0.80;0.40;;;23.50;37.90;;;;;;5040340;28;20021;-56
2022/02/09 10:47:23;;;;;;;1.05;0.45;;;23.50;37.90;;;;;;5055201;28;20048;-53
2022/02/09 10:50:08;;;;;;;0.40;0.40;;;23.50;38.00;;;;;;5053509;28;20454;-54
2022/02/09 10:52:42;;;;;;;0.40;0.40;;;23.40;37.90;;;;;;5044998;28;20409;-56
2022/02/09 10:55:38;;;;;;;0.68;0.50;;;23.40;38.00;;;;;;5033904;28;20021;-54
2022/02/09 10:58:17;;;;;;;0.60;0.50;;;23.30;38.00;;;;;;5030686;28;20503;-48
2022/02/09 11:00:46;;;;;;;0.85;0.50;;;23.30;38.10;;;;;;5050129;28;20086;-53
2022/02/09 11:03:27;;;;;;;0.98;0.60;;;23.30;38.10;;;;;;5049516;28;20037;-56
2022/02/09 11:05:58;;;;;;;0.70;0.60;;;23.30;38.10;;;;;;5048948;28;20029;-54
2022/02/09 11:08:24;;;;;;;0.65;0.30;;;23.30;38.10;;;;;;5048818;28;20029;-53
2022/02/09 11:10:57;;;;;;;0.47;0.47;;;23.20;38.10;;;;;;5040725;28;20056;-55
2022/02/09 11:13:23;;;;;;;2.35;0.50;;;23.20;38.10;;;;;;5046723;28;20037;-55
2022/02/09 11:15:49;;;;;;;0.40;0.40;;;23.30;38.10;;;;;;5043808;28;20490;-52
2022/02/09 11:18:19;;;;;;;0.40;0.40;;;23.20;38.00;;;;;;5034475;28;20041;-56
2022/02/09 11:21:03;;;;;;;0.68;0.50;;;23.20;38.00;;;;;;5054025;28;20523;-54
2022/02/09 11:23:59;;;;;;;0.50;0.50;;;23.20;38.00;;;;;;5052653;28;20106;-53
2022/02/09 11:26:40;;;;;;;0.50;0.50;;;23.30;38.70;;;;;;5054109;28;20029;-57
2022/02/09 11:29:45;;;;;;;0.63;0.50;;;23.20;38.00;;;;;;5055132;28;20064;-51
2022/02/09 11:34:56;;;;;;;0.40;0.40;;;23.20;38.00;;;;;;5042149;28;19969;-52
2022/02/09 11:37:39;;;;;;;0.40;0.40;;;23.20;38.10;;;;;;5057454;28;20055;-58
2022/02/09 11:43:30;;;;;;;0.40;0.40;;;23.20;38.00;;;;;;5056433;28;20067;-53
2022/02/09 11:54:57;;;;;;;0.82;0.50;;;23.20;38.10;;;;;;5037510;28;20044;-53
2022/02/09 12:12:12;;;;;;;0.98;0.50;;;23.10;38.10;;;;;;5022890;28;20045;-52
2022/02/09 12:19:58;;;;;;;1.73;0.60;;;23.10;38.00;;;;;;5054379;28;20348;-55
2022/02/09 12:22:26;;;;;;;0.60;0.50;;;23.10;38.00;;;;;;5056511;28;20063;-59
2022/02/09 12:24:58;;;;;;;0.75;0.52;;;23.10;38.00;;;;;;5042088;28;20032;-53
2022/02/09 12:27:24;;;;;;;0.85;0.52;;;23.20;38.10;;;;;;5055995;28;20431;-55
2022/02/09 12:30:10;;;;;;;0.52;0.52;;;23.10;38.00;;;;;;5047352;28;20021;-53
2022/02/09 12:32:36;;;;;;;0.70;0.68;;;23.20;38.00;;;;;;5036516;28;20029;-55
2022/02/09 12:35:13;;;;;;;1.15;0.68;;;23.10;38.00;;;;;;5040410;28;20322;-52
2022/02/09 12:37:40;;;;;;;0.60;0.50;;;23.10;37.90;;;;;;5042992;28;20025;-49
2022/02/09 12:40:08;;;;;;;0.82;0.60;;;23.10;37.90;;;;;;5050432;28;20030;-50
2022/02/09 12:42:38;;;;;;;0.47;0.47;;;23.10;37.90;;;;;;5052295;28;20036;-54
2022/02/09 12:45:19;;;;;;;0.68;0.60;;;23.10;37.90;;;;;;5050543;28;20033;-53
2022/02/09 12:47:52;;;;;;;0.63;0.40;;;23.10;37.90;;;;;;5033203;28;20055;-54
2022/02/09 12:50:32;;;;;;;0.90;0.55;;;23.10;37.90;;;;;;5036028;28;20032;-57
2022/02/09 12:52:59;;;;;;;0.50;0.50;;;23.10;37.90;;;;;;5028904;28;20034;-53
2022/02/09 12:55:27;;;;;;;1.25;0.70;;;23.10;37.90;;;;;;5043132;28;20056;-52
2022/02/09 12:57:54;;;;;;;0.60;0.60;;;23.10;37.90;;;;;;5048394;28;20024;-55
2022/02/09 13:00:53;;;;;;;0.70;0.60;;;23.10;37.90;;;;;;5049152;28;20156;-53
2022/02/09 13:03:23;;;;;;;0.75;0.60;;;23.10;37.80;;;;;;5021661;28;20045;-54
2022/02/09 13:05:56;;;;;;;1.52;0.70;;;23.10;37.90;;;;;;5047075;28;20116;-51
2022/02/09 13:08:26;;;;;;;0.80;0.60;;;23.00;37.80;;;;;;5055497;28;20502;-55
2022/02/09 13:11:02;;;;;;;1.73;0.47;;;23.00;37.90;;;;;;5040722;28;20028;-55
2022/02/09 13:13:31;;;;;;;0.90;0.50;;;23.00;37.80;;;;;;5049897;28;20436;-50
2022/02/09 14:47:20;;;;;;;1.23;0.65;;;23.40;38.30;;;;;;5054852;28;20423;-54
2022/02/09 14:54:45;;;;;;;0.35;0.35;;;23.70;38.20;;;;;;5045802;28;20437;-57
2022/02/09 14:57:20;;;;;;;0.63;0.47;;;23.80;38.20;;;;;;5048151;28;20499;-57
2022/02/09 15:00:03;;;;;;;2.03;0.40;;;23.80;38.20;;;;;;5043893;28;20456;-60
2022/02/09 15:02:50;;;;;;;0.57;0.50;;;23.90;38.10;;;;;;5036708;28;20029;-59
2022/02/09 15:08:12;;;;;;;;;;;23.90;37.80;;;;;;5022323;28;20428;-57
2022/02/09 15:11:07;;;;;;;0.50;0.40;;;23.90;37.80;;;;;;5045882;28;19955;-53
2022/02/09 15:19:01;;;;;;;1.20;0.75;;;23.90;37.60;;;;;;5042185;28;20468;-54
2022/02/09 15:24:12;;;;;;;0.70;0.57;;;23.90;37.30;;;;;;5001653;28;20348;-57
2022/02/09 15:26:37;;;;;;;0.98;0.80;;;23.90;37.20;;;;;;5038465;28;20041;-53
2022/02/09 15:29:03;;;;;;;0.70;0.60;;;24.00;37.20;;;;;;5022876;28;20017;-54
2022/02/09 15:31:45;;;;;;;0.90;0.70;;;24.00;37.10;;;;;;5043363;28;20025;-57
2022/02/09 15:34:34;;;;;;;1.30;0.80;;;24.00;37.00;;;;;;5042882;28;20029;-57
2022/02/09 15:37:11;;;;;;;1.13;0.70;;;24.00;37.00;;;;;;5040354;28;20025;-53
2022/02/09 15:39:43;;;;;;;0.68;0.52;;;24.00;36.90;;;;;;5030116;28;20070;-58
2022/02/09 15:58:47;;;;;;;;;;;24.10;36.60;;;;;;5044605;28;20036;-52
2022/02/09 16:09:28;;;;;;;1.25;0.50;;;24.10;36.40;;;;;;5045469;28;20474;-56
2022/02/09 16:22:28;;;;;;;1.25;0.60;;;24.20;36.20;;;;;;5050896;28;20036;-53
2022/02/09 16:25:15;;;;;;;1.15;0.68;;;24.20;36.20;;;;;;5026183;28;20036;-55
2022/02/09 16:33:20;;;;;;;1.20;0.60;;;24.30;36.20;;;;;;5047157;28;20109;-58
2022/02/09 16:38:36;;;;;;;1.50;1.20;;;24.30;36.20;;;;;;5043064;28;20053;-55
2022/02/09 16:46:34;;;;;;;;;;;24.20;36.30;;;;;;5044888;28;20033;-55
2022/02/09 16:49:14;;;;;;;3.45;2.15;;;24.20;36.40;;;;;;5041439;28;19909;-52
2022/02/09 16:51:47;;;;;;;4.22;1.60;;;24.10;36.40;;;;;;5046254;28;20116;-57
2022/02/09 17:21:11;;;;;;;1.67;1.08;;;23.90;36.70;;;;;;5040577;28;20081;-58
2022/02/09 17:23:37;;;;;;;0.95;0.80;;;23.90;36.70;;;;;;5042598;28;20481;-54
2022/02/09 17:26:03;;;;;;;1.55;1.02;;;23.90;36.70;;;;;;5043912;28;20128;-57
2022/02/09 17:28:29;;;;;;;2.30;0.80;;;24.00;36.70;;;;;;5046743;28;20106;-58
2022/02/09 17:36:11;;;;;;;1.92;0.93;;;23.90;36.70;;;;;;5047136;28;20017;-56
2022/02/09 17:57:17;;;;;;;;;;;23.70;37.20;;;;;;5047952;28;19969;-56
2022/02/09 17:59:56;;;;;;;;;;;23.70;37.20;;;;;;5043105;28;19935;-53
2022/02/09 18:02:23;;;;;;;;;;;23.70;37.30;;;;;;5045165;28;19941;-58
2022/02/09 18:04:48;;;;;;;;;;;23.60;37.30;;;;;;5041485;28;19920;-57
2022/02/09 18:07:20;;;;;;;;;;;23.60;37.40;;;;;;5047857;28;19912;-57
2022/02/09 18:09:50;;;;;;;;;;;23.60;37.40;;;;;;5037232;28;19963;-54
2022/02/09 18:12:46;;;;;;;;;;;23.60;37.40;;;;;;5049970;28;19908;-56
2022/02/09 18:29:09;;;;;;;;;;;23.50;37.60;;;;;;5048291;28;19928;-55
2022/02/09 18:31:54;;;;;;;;;;;23.50;37.60;;;;;;5040065;28;19916;-57
2022/02/09 18:44:54;;;;;;;;;;;23.40;37.60;;;;;;5035557;28;20339;-56
2022/02/09 19:03:54;;;;;;;;;;;23.40;37.80;;;;;;5045939;28;20356;-57
2022/02/09 19:06:02;;;;;;;;;;;23.40;37.80;;;;;;5031727;28;19925;-54
2022/02/09 19:08:51;;;;;;;;;;;23.30;37.80;;;;;;5039694;28;20243;-58
2022/02/09 19:48:18;;;;;;;;;;;23.10;38.10;;;;;;5043939;28;20012;-54
2022/02/09 19:51:07;;;;;;;;;;;23.10;38.00;;;;;;5049851;28;19996;-57
2022/02/09 19:56:21;;;;;;;;;;;23.10;38.10;;;;;;5054793;28;19924;-56
2022/02/09 19:58:57;;;;;;;;;;;23.00;38.10;;;;;;5051643;28;19935;-55
2022/02/09 20:01:27;;;;;;;;;;;23.00;38.10;;;;;;5047580;28;19920;-54
2022/02/09 20:03:53;;;;;;;;;;;23.00;38.10;;;;;;5047975;28;19912;-58
2022/02/09 20:06:19;;;;;;;;;;;23.00;38.20;;;;;;5040441;28;20441;-54
2022/02/09 20:08:45;;;;;;;;;;;23.00;38.10;;;;;;5044472;28;19925;-61
2022/02/09 20:11:16;;;;;;;;;;;23.00;38.20;;;;;;5044819;28;19913;-55
2022/02/09 20:13:42;;;;;;;;;;;22.90;38.20;;;;;;5042252;28;20320;-59
2022/02/09 20:16:07;;;;;;;;;;;23.00;38.20;;;;;;5052531;28;19974;-53
2022/02/09 20:18:33;;;;;;;;;;;23.00;38.20;;;;;;5048595;28;19905;-58
2022/02/09 20:20:59;;;;;;;;;;;22.90;38.20;;;;;;5055046;28;20008;-58
2022/02/09 20:23:27;;;;;;;;;;;22.90;38.20;;;;;;5047484;28;19905;-52
2022/02/09 20:25:53;;;;;;;;;;;22.90;38.20;;;;;;5046305;28;19909;-55
2022/02/09 20:28:19;;;;;;;;;;;22.90;38.30;;;;;;5048865;28;19908;-57
2022/02/09 20:30:51;;;;;;;;;;;22.90;38.30;;;;;;5045495;28;20340;-56
2022/02/09 20:33:21;;;;;;;;;;;22.90;38.30;;;;;;5051223;28;19920;-54
2022/02/09 20:35:47;;;;;;;;;;;22.90;38.30;;;;;;5021258;28;20275;-55
2022/02/09 20:38:19;;;;;;;;;;;22.90;38.30;;;;;;5042929;28;19904;-51
2022/02/09 20:43:16;;;;;;;;;;;22.90;38.30;;;;;;5046766;28;19953;-53
2022/02/09 20:45:53;;;;;;;;;;;22.90;38.30;;;;;;5053609;28;20293;-55
2022/02/09 20:48:24;;;;;;;;;;;22.90;38.40;;;;;;5036263;28;19905;-56
2022/02/09 20:50:50;;;;;;;;;;;22.90;38.50;;;;;;5041759;28;19913;-55
2022/02/09 20:53:16;;;;;;;;;;;22.90;38.50;;;;;;5047772;28;19905;-51
2022/02/09 20:55:42;;;;;;;;;;;22.90;38.50;;;;;;5036164;28;19909;-55
2022/02/09 20:58:08;;;;;;;;;;;22.80;38.50;;;;;;5038397;28;20319;-53
2022/02/09 21:10:41;;;;;;;;;;;22.80;38.60;;;;;;5035809;28;20406;-52
2022/02/09 21:13:16;;;;;;;;;;;22.80;38.60;;;;;;5039336;28;19909;-58
2022/02/09 21:15:56;;;;;;;;;;;22.80;38.60;;;;;;5046344;28;19927;-51
2022/02/09 21:56:14;;;;;;;;;;;22.70;39.10;;;;;;5052401;28;20374;-60
2022/02/09 21:58:54;;;;;;;;;;;22.70;39.10;;;;;;5045317;28;19905;-56
2022/02/09 22:20:17;;;;;;;;;;;22.60;39.00;;;;;;5047933;28;20767;-57
2022/02/09 22:27:50;;;;;;;;;;;22.60;39.00;;;;;;5044213;28;20340;-54
2022/02/09 22:55:19;;;;;;;;;;;22.50;39.00;;;;;;5045897;28;19919;-56
2022/02/09 23:00:16;;;;;;;;;;;22.50;38.90;;;;;;5049367;28;19977;-55
2022/02/09 23:02:52;;;;;;;;;;;22.40;38.90;;;;;;5034935;28;19952;-62
2022/02/09 23:08:10;;;;;;;;;;;22.40;38.90;;;;;;5048847;28;19928;-57
2022/02/09 23:13:11;;;;;;;;;;;22.40;39.00;;;;;;5041083;28;20244;-56
2022/02/09 23:15:59;;;;;;;;;;;22.40;38.90;;;;;;5044003;28;19936;-57
2022/02/09 23:19:50;;;;;;;;;;;22.40;38.90;;;;;;5055299;28;19904;-53
2022/02/09 23:27:04;;;;;;;;;;;22.40;38.90;;;;;;5051993;28;19913;-59
2022/02/09 23:57:12;;;;;;;;;;;22.30;38.90;;;;;;5057637;28;20381;-54
